createdAt,value
2018-03-08T00:00:42.567Z,17.62
2018-03-08T00:03:10.034Z,19.77
2018-03-08T00:05:37.522Z,16.50
2018-03-08T00:08:05.096Z,19.40
2018-03-08T00:10:32.552Z,21.02
2018-03-08T00:13:00.016Z,19.58
2018-03-08T00:15:27.496Z,24.00
2018-03-08T00:17:54.967Z,22.95
2018-03-08T00:20:22.439Z,27.75
2018-03-08T00:22:49.920Z,24.20
2018-03-08T00:25:17.380Z,23.12
2018-03-08T00:27:44.844Z,28.27
2018-03-08T00:30:12.303Z,26.70
2018-03-08T00:32:39.759Z,26.00
2018-03-08T00:35:07.256Z,28.75
2018-03-08T00:37:34.717Z,24.77
2018-03-08T00:40:02.196Z,26.08
2018-03-08T00:42:29.769Z,23.08
2018-03-08T00:44:57.332Z,20.15
2018-03-08T00:47:24.809Z,26.60
2018-03-08T00:49:52.279Z,21.25
2018-03-08T00:52:19.856Z,26.00
2018-03-08T00:54:47.311Z,26.33
2018-03-08T00:57:14.776Z,21.48
2018-03-08T00:59:42.240Z,21.10
2018-03-08T01:02:09.728Z,25.25
2018-03-08T01:04:37.207Z,26.50
2018-03-08T01:07:04.672Z,21.77
2018-03-08T01:09:32.128Z,23.83
2018-03-08T01:11:59.591Z,22.30
2018-03-08T01:14:27.053Z,21.77
2018-03-08T01:16:54.520Z,27.08
2018-03-08T01:19:21.984Z,31.55
2018-03-08T01:21:49.461Z,24.33
2018-03-08T01:24:16.927Z,28.10
2018-03-08T01:26:44.394Z,28.12
2018-03-08T01:29:11.896Z,27.05
2018-03-08T01:31:39.356Z,26.70
2018-03-08T01:34:06.824Z,27.35
2018-03-08T01:36:34.292Z,28.12
2018-03-08T01:39:01.752Z,27.73
2018-03-08T01:41:29.215Z,28.77
2018-03-08T01:43:56.709Z,27.13
2018-03-08T01:46:24.188Z,21.12
2018-03-08T01:48:51.748Z,20.02
2018-03-08T01:51:19.220Z,24.80
2018-03-08T01:53:46.796Z,20.98
2018-03-08T01:56:14.371Z,25.02
2018-03-08T01:58:41.936Z,24.25
2018-03-08T02:01:09.404Z,23.98
2018-03-08T02:03:36.976Z,22.25
2018-03-08T02:06:04.437Z,18.92
2018-03-08T02:08:31.911Z,24.35
2018-03-08T02:10:59.376Z,29.83
2018-03-08T02:13:26.836Z,28.95
2018-03-08T02:15:54.304Z,31.20
2018-03-08T02:18:21.773Z,21.83
2018-03-08T02:20:49.281Z,25.67
2018-03-08T02:23:16.836Z,18.17
2018-03-08T02:25:44.292Z,25.58
2018-03-08T02:28:11.756Z,27.67
2018-03-08T02:30:39.241Z,22.87
2018-03-08T02:33:06.696Z,28.73
2018-03-08T02:35:34.146Z,33.90
2018-03-08T02:38:01.613Z,35.60
2018-03-08T02:40:29.116Z,31.83
2018-03-08T02:42:56.594Z,28.33
2018-03-08T02:45:24.057Z,41.95
2018-03-08T02:47:51.523Z,50.45
2018-03-08T02:50:18.980Z,38.75
2018-03-08T02:52:46.448Z,44.33
2018-03-08T02:55:13.908Z,45.08
2018-03-08T02:57:41.384Z,45.05
2018-03-08T03:00:08.876Z,49.78
2018-03-08T03:02:36.329Z,51.90
2018-03-08T03:05:03.797Z,56.28
2018-03-08T03:07:31.260Z,55.50
2018-03-08T03:09:58.748Z,57.70
2018-03-08T03:12:26.203Z,58.35
2018-03-08T03:14:53.667Z,60.72
2018-03-08T03:17:21.124Z,62.10
2018-03-08T03:19:48.644Z,60.12
2018-03-08T03:22:16.200Z,73.70
2018-03-08T03:24:43.660Z,61.22
2018-03-08T03:27:11.123Z,71.30
2018-03-08T03:29:38.611Z,70.22
2018-03-08T03:32:06.102Z,77.60
2018-03-08T03:34:33.568Z,62.30
2018-03-08T03:37:01.027Z,75.93
2018-03-08T03:39:28.485Z,76.87
2018-03-08T03:41:55.960Z,74.28
2018-03-08T03:44:23.415Z,67.40
2018-03-08T03:46:50.871Z,76.32
2018-03-08T03:49:18.339Z,64.87
2018-03-08T03:51:45.795Z,68.80
2018-03-08T03:54:13.516Z,71.82
2018-03-08T03:56:41.084Z,69.95
2018-03-08T03:59:08.546Z,64.47
2018-03-08T04:01:36.000Z,63.47
2018-03-08T04:04:03.481Z,66.45
2018-03-08T04:06:30.940Z,73.93
2018-03-08T04:08:58.395Z,70.85
2018-03-08T04:11:25.865Z,67.12
2018-03-08T04:13:53.328Z,60.95
2018-03-08T04:16:20.840Z,62.00
2018-03-08T04:18:48.413Z,59.22
2018-03-08T04:21:15.864Z,58.70
2018-03-08T04:23:43.324Z,49.95
2018-03-08T04:26:10.796Z,48.03
2018-03-08T04:28:38.252Z,51.47
2018-03-08T04:31:05.756Z,39.55
2018-03-08T04:33:33.224Z,45.72
2018-03-08T04:36:00.696Z,45.42
2018-03-08T04:38:28.177Z,51.15
2018-03-08T04:40:55.645Z,50.47
2018-03-08T04:43:23.215Z,51.40
2018-03-08T04:45:50.672Z,52.65
2018-03-08T04:48:18.132Z,48.17
2018-03-08T04:50:45.608Z,48.03
2018-03-08T04:53:13.088Z,46.35
2018-03-08T04:55:40.548Z,46.80
2018-03-08T04:58:08.028Z,49.38
2018-03-08T05:00:35.496Z,49.80
2018-03-08T05:03:02.981Z,50.20
2018-03-08T05:05:30.452Z,50.72
2018-03-08T05:07:58.013Z,42.58
2018-03-08T05:10:25.467Z,37.85
2018-03-08T05:12:54.550Z,40.45
2018-03-08T05:15:22.099Z,38.78
2018-03-08T05:17:50.344Z,50.80
2018-03-08T05:20:17.915Z,40.97
2018-03-08T05:22:45.385Z,42.08
2018-03-08T05:25:12.838Z,44.28
2018-03-08T05:27:40.302Z,38.83
2018-03-08T05:30:07.792Z,36.03
2018-03-08T05:32:35.261Z,29.58
2018-03-08T05:35:02.727Z,44.42
2018-03-08T05:37:30.304Z,35.70
2018-03-08T05:39:57.756Z,32.85
2018-03-08T05:42:25.217Z,33.97
2018-03-08T05:44:52.685Z,26.37
2018-03-08T05:47:20.146Z,30.75
2018-03-08T05:49:47.617Z,32.50
2018-03-08T05:52:15.064Z,27.80
2018-03-08T05:54:42.530Z,33.20
2018-03-08T05:57:10.880Z,29.12
2018-03-08T05:59:38.345Z,25.37
2018-03-08T06:02:05.813Z,31.08
2018-03-08T06:04:34.047Z,24.73
2018-03-08T06:07:02.276Z,34.42
2018-03-08T06:09:29.741Z,26.58
2018-03-08T06:11:57.238Z,28.05
2018-03-08T06:14:24.700Z,27.70
2018-03-08T06:16:52.183Z,24.40
2018-03-08T06:19:19.797Z,30.23
2018-03-08T06:21:47.313Z,22.42
2018-03-08T06:24:14.843Z,24.10
2018-03-08T06:26:42.353Z,29.45
2018-03-08T06:29:09.918Z,35.05
2018-03-08T06:31:37.400Z,31.85
2018-03-08T06:34:04.872Z,25.25
2018-03-08T06:36:32.333Z,28.65
2018-03-08T06:38:59.856Z,30.20
2018-03-08T06:41:27.372Z,32.53
2018-03-08T06:43:54.841Z,35.60
2018-03-08T06:46:22.419Z,30.90
2018-03-08T06:48:49.943Z,20.17
2018-03-08T06:51:17.406Z,25.70
2018-03-08T06:53:45.646Z,23.65
2018-03-08T06:56:13.097Z,16.27
2018-03-08T06:58:40.695Z,15.07
2018-03-08T07:01:08.160Z,17.17
2018-03-08T07:03:35.619Z,13.75
2018-03-08T07:06:03.096Z,16.12
2018-03-08T07:08:30.552Z,14.15
2018-03-08T07:10:58.021Z,22.02
2018-03-08T07:13:25.472Z,15.07
2018-03-08T07:15:52.976Z,13.75
2018-03-08T07:18:20.440Z,13.25
2018-03-08T07:20:47.891Z,19.42
2018-03-08T07:23:15.362Z,10.02
2018-03-08T07:25:42.820Z,20.20
2018-03-08T07:28:10.280Z,15.23
2018-03-08T07:30:37.744Z,13.70
2018-03-08T07:33:05.200Z,13.62
2018-03-08T07:35:33.442Z,19.70
2018-03-08T07:38:00.926Z,14.20
2018-03-08T07:40:28.379Z,13.85
2018-03-08T07:42:55.964Z,13.80
2018-03-08T07:45:23.436Z,10.80
2018-03-08T07:47:51.002Z,13.98
2018-03-08T07:50:18.478Z,12.65
2018-03-08T07:52:45.943Z,14.10
2018-03-08T07:55:13.409Z,13.18
2018-03-08T07:57:40.856Z,10.68
2018-03-08T08:00:08.321Z,13.83
2018-03-08T08:02:35.768Z,13.37
2018-03-08T08:05:15.217Z,10.93
2018-03-08T08:07:55.557Z,13.75
2018-03-08T08:10:23.111Z,11.02
2018-03-08T08:12:50.588Z,14.73
2018-03-08T08:15:18.052Z,14.20
2018-03-08T08:17:45.620Z,14.75
2018-03-08T08:20:13.096Z,13.27
2018-03-08T08:22:40.664Z,10.27
2018-03-08T08:25:08.116Z,15.48
2018-03-08T08:27:35.595Z,13.15
2018-03-08T08:30:03.068Z,14.68
2018-03-08T08:32:30.537Z,11.38
2018-03-08T08:34:57.993Z,15.38
2018-03-08T08:37:25.456Z,15.80
2018-03-08T08:39:52.928Z,11.55
2018-03-08T08:42:20.384Z,12.20
2018-03-08T08:44:47.840Z,13.75
2018-03-08T08:47:15.352Z,14.45
2018-03-08T08:49:42.928Z,14.00
2018-03-08T08:52:10.380Z,11.50
2018-03-08T08:54:37.931Z,13.32
2018-03-08T08:57:05.444Z,14.63
2018-03-08T08:59:32.908Z,13.95
2018-03-08T09:02:00.480Z,15.82
2018-03-08T09:04:27.941Z,12.65
2018-03-08T09:06:55.437Z,11.40
2018-03-08T09:09:22.900Z,15.32
2018-03-08T09:11:50.380Z,10.52
2018-03-08T09:14:17.899Z,14.73
2018-03-08T09:16:46.099Z,13.95
2018-03-08T09:19:13.573Z,14.25
2018-03-08T09:21:41.043Z,14.40
2018-03-08T09:24:08.517Z,10.45
2018-03-08T09:26:36.108Z,12.70
2018-03-08T09:29:03.629Z,12.70
2018-03-08T09:31:31.092Z,10.95
2018-03-08T09:33:58.611Z,12.20
2018-03-08T09:36:26.090Z,16.42
2018-03-08T09:38:53.568Z,14.48
2018-03-08T09:41:21.136Z,11.60
2018-03-08T09:43:48.645Z,11.63
2018-03-08T09:46:16.064Z,13.27
2018-03-08T09:48:43.536Z,13.90
2018-03-08T09:51:11.002Z,10.60
2018-03-08T09:53:38.468Z,11.12
2018-03-08T09:56:05.940Z,11.50
2018-03-08T09:58:33.395Z,14.67
2018-03-08T10:01:00.872Z,11.12
2018-03-08T10:03:28.447Z,11.12
2018-03-08T10:05:55.917Z,13.35
2018-03-08T10:08:23.489Z,10.98
2018-03-08T10:10:50.952Z,11.80
2018-03-08T10:13:18.424Z,9.10
2018-03-08T10:15:45.903Z,10.00
2018-03-08T10:18:13.371Z,12.25
2018-03-08T10:20:40.939Z,10.95
2018-03-08T10:23:08.396Z,10.07
2018-03-08T10:25:35.872Z,9.60
2018-03-08T10:28:03.358Z,8.60
2018-03-08T10:30:30.829Z,8.68
2018-03-08T10:32:58.305Z,11.38
2018-03-08T10:35:25.768Z,7.80
2018-03-08T10:37:53.248Z,7.82
2018-03-08T10:40:20.807Z,10.05
2018-03-08T10:42:48.276Z,11.32
2018-03-08T10:45:15.943Z,6.70
2018-03-08T10:47:43.411Z,9.43
2018-03-08T10:50:10.884Z,9.05
2018-03-08T10:52:38.351Z,8.98
2018-03-08T10:55:05.927Z,8.93
2018-03-08T10:57:33.388Z,8.57
2018-03-08T11:00:00.864Z,9.30
2018-03-08T11:02:34.073Z,8.20
2018-03-08T11:05:01.537Z,7.05
2018-03-08T11:07:28.996Z,11.35
2018-03-08T11:09:56.473Z,8.93
2018-03-08T11:12:23.924Z,7.90
2018-03-08T11:14:51.376Z,8.60
2018-03-08T11:17:18.839Z,10.13
2018-03-08T11:19:46.348Z,10.60
2018-03-08T11:22:13.923Z,8.05
2018-03-08T11:24:41.392Z,9.07
2018-03-08T11:27:08.871Z,8.98
2018-03-08T11:29:36.346Z,8.75
2018-03-08T11:32:03.907Z,9.80
2018-03-08T11:34:31.389Z,8.07
2018-03-08T11:36:58.865Z,8.70
2018-03-08T11:39:26.329Z,8.95
2018-03-08T11:41:53.792Z,9.20
2018-03-08T11:44:21.349Z,9.93
2018-03-08T11:46:48.809Z,9.17
2018-03-08T11:49:16.272Z,7.18
2018-03-08T11:51:43.744Z,8.63
2018-03-08T11:54:11.233Z,7.55
2018-03-08T11:56:38.690Z,7.20
2018-03-08T11:59:06.170Z,7.82
2018-03-08T12:01:33.740Z,8.40
2018-03-08T12:04:01.212Z,8.30
2018-03-08T12:06:28.676Z,7.00
2018-03-08T12:08:56.146Z,6.85
2018-03-08T12:11:23.732Z,10.40
2018-03-08T12:13:51.197Z,7.60
2018-03-08T12:16:18.648Z,7.10
2018-03-08T12:18:46.112Z,6.50
2018-03-08T12:21:13.591Z,6.93
2018-03-08T12:23:41.051Z,6.82
2018-03-08T12:26:08.509Z,5.50
2018-03-08T12:28:35.979Z,5.57
2018-03-08T12:31:03.443Z,7.22
2018-03-08T12:33:30.908Z,6.47
2018-03-08T12:35:58.380Z,5.50
2018-03-08T12:38:25.850Z,5.60
2018-03-08T12:40:53.316Z,5.50
2018-03-08T12:43:20.772Z,7.60
2018-03-08T12:45:48.484Z,6.17
2018-03-08T12:48:15.940Z,5.62
2018-03-08T12:50:43.408Z,6.10
2018-03-08T12:53:10.860Z,6.07
2018-03-08T12:55:38.324Z,6.75
2018-03-08T12:58:05.785Z,7.45
2018-03-08T13:00:34.009Z,6.03
2018-03-08T13:03:01.483Z,8.88
2018-03-08T13:05:28.972Z,5.53
2018-03-08T13:07:56.436Z,9.73
2018-03-08T13:10:23.913Z,7.05
2018-03-08T13:12:51.388Z,6.40
2018-03-08T13:15:18.849Z,5.12
2018-03-08T13:17:46.320Z,6.40
2018-03-08T13:20:13.772Z,6.30
2018-03-08T13:22:41.229Z,6.17
2018-03-08T13:25:08.685Z,6.18
2018-03-08T13:27:36.136Z,9.00
2018-03-08T13:30:04.362Z,6.55
2018-03-08T13:32:31.825Z,4.50
2018-03-08T13:34:59.276Z,10.63
2018-03-08T13:37:26.736Z,8.77
2018-03-08T13:39:54.188Z,6.10
2018-03-08T13:42:22.403Z,4.60
2018-03-08T13:44:49.897Z,6.95
2018-03-08T13:47:17.344Z,5.68
2018-03-08T13:49:44.804Z,4.35
2018-03-08T13:52:13.026Z,5.35
2018-03-08T13:54:40.478Z,3.60
2018-03-08T13:57:07.940Z,5.20
2018-03-08T13:59:35.404Z,6.85
2018-03-08T14:02:02.860Z,5.28
2018-03-08T14:04:31.080Z,5.47
2018-03-08T14:06:58.532Z,5.97
2018-03-08T14:09:25.988Z,6.82
2018-03-08T14:11:54.209Z,6.60
2018-03-08T14:14:21.660Z,7.62
2018-03-08T14:16:49.127Z,7.93
2018-03-08T14:19:16.590Z,7.85
2018-03-08T14:21:44.046Z,5.90
2018-03-08T14:24:11.511Z,6.37
2018-03-08T14:26:39.744Z,4.95
2018-03-08T14:29:07.214Z,7.00
2018-03-08T14:31:34.720Z,7.22
2018-03-08T14:34:02.176Z,4.37
2018-03-08T14:36:29.632Z,6.85
2018-03-08T14:38:57.084Z,4.97
2018-03-08T14:41:24.557Z,4.80
2018-03-08T14:43:52.008Z,6.10
2018-03-08T14:46:19.452Z,5.60
2018-03-08T14:48:47.683Z,5.40
2018-03-08T14:51:15.140Z,9.68
2018-03-08T14:53:42.612Z,6.60
2018-03-08T14:56:10.057Z,8.30
2018-03-08T14:58:38.285Z,10.48
2018-03-08T15:01:05.758Z,12.02
2018-03-08T15:03:33.206Z,6.78
2018-03-08T15:06:00.662Z,9.93
2018-03-08T15:08:28.117Z,9.27
2018-03-08T15:10:56.347Z,7.97
2018-03-08T15:13:23.799Z,5.80
2018-03-08T15:15:51.264Z,7.62
2018-03-08T15:18:18.708Z,6.85
2018-03-08T15:20:46.932Z,5.80
2018-03-08T15:23:14.384Z,7.93
2018-03-08T15:25:41.863Z,7.62
2018-03-08T15:28:09.328Z,8.15
2018-03-08T15:30:36.783Z,7.45
2018-03-08T15:33:05.008Z,5.20
2018-03-08T15:35:32.456Z,5.70
2018-03-08T15:37:59.962Z,6.12
2018-03-08T15:40:27.421Z,10.77
2018-03-08T15:45:22.663Z,5.30
2018-03-08T16:45:20.081Z,1.80
2018-03-08T16:47:47.540Z,2.92
2018-03-08T16:50:14.989Z,1.77
